Time;durP1;ratioP1;P1;durP2;ratioP2;P2;SDS_P1;SDS_P2;PMS_P1;PMS_P2;Temp;Humidity;BMP_temperature;BMP_pressure;BME280_temperature;BME280_humidity;BME280_pressure;Samples;Min_cycle;Max_cycle;Signal;HPM_P1;HPM_P2
2023/08/26 00:00:16;;;;;;;10.73;9.80;;;;;;;;;;4863796;29;20753;-86
2023/08/26 00:02:45;;;;;;;10.87;9.80;;;;;;;;;;4866426;29;20688;-86
2023/08/26 00:05:13;;;;;;;12.43;10.17;;;;;;;;;;4878321;29;20718;-85
2023/08/26 00:07:44;;;;;;;10.30;9.40;;;;;;;;;;4866522;29;20729;-86
2023/08/26 00:10:12;;;;;;;10.67;9.67;;;;;;;;;;4854345;29;21380;-85
2023/08/26 00:12:42;;;;;;;10.20;8.80;;;;;;;;;;4885797;29;20723;-85
2023/08/26 00:15:12;;;;;;;12.73;9.90;;;;;;;;;;4854372;29;20710;-85
2023/08/26 00:17:40;;;;;;;11.67;10.53;;;;;;;;;;4884495;29;20643;-85
2023/08/26 00:20:09;;;;;;;9.23;8.43;;;;;;;;;;4869439;29;20645;-85
2023/08/26 00:22:38;;;;;;;10.30;8.67;;;;;;;;;;4868603;29;20706;-85
2023/08/26 00:25:06;;;;;;;17.87;8.47;;;;;;;;;;4852941;29;20630;-84
2023/08/26 00:27:34;;;;;;;9.67;7.93;;;;;;;;;;4868224;29;20611;-85
2023/08/26 00:30:04;;;;;;;9.30;8.40;;;;;;;;;;4867996;29;20662;-85
2023/08/26 00:32:32;;;;;;;9.97;9.00;;;;;;;;;;4884529;29;20642;-84
2023/08/26 00:35:01;;;;;;;12.73;8.90;;;;;;;;;;4867052;29;20631;-87
2023/08/26 00:37:29;;;;;;;10.03;9.03;;;;;;;;;;4851203;29;20629;-86
2023/08/26 00:39:57;;;;;;;11.43;8.70;;;;;;;;;;4884571;29;20636;-86
2023/08/26 00:42:26;;;;;;;14.20;9.80;;;;;;;;;;4868188;29;20645;-85
2023/08/26 00:44:54;;;;;;;10.10;8.93;;;;;;;;;;4868872;29;20630;-85
2023/08/26 00:47:23;;;;;;;9.70;8.70;;;;;;;;;;4854087;29;20633;-85
2023/08/26 00:49:53;;;;;;;11.83;9.03;;;;;;;;;;4854037;29;20646;-85
2023/08/26 00:52:21;;;;;;;10.10;9.10;;;;;;;;;;4869563;29;20631;-85
2023/08/26 00:54:49;;;;;;;9.20;8.40;;;;;;;;;;4869296;29;20646;-85
2023/08/26 00:57:18;;;;;;;9.57;8.53;;;;;;;;;;4885500;29;20712;-85
2023/08/26 00:59:46;;;;;;;11.20;8.13;;;;;;;;;;4884460;29;20674;-85
2023/08/26 01:02:14;;;;;;;13.70;8.00;;;;;;;;;;4853292;29;20710;-85
2023/08/26 01:04:44;;;;;;;9.30;8.37;;;;;;;;;;4885871;29;20660;-85
2023/08/26 01:07:15;;;;;;;10.23;8.40;;;;;;;;;;4856034;29;20694;-86
2023/08/26 01:09:43;;;;;;;12.07;8.70;;;;;;;;;;4871223;29;20687;-86
2023/08/26 01:12:17;;;;;;;14.50;8.53;;;;;;;;;;4850091;29;20624;-85
2023/08/26 01:14:50;;;;;;;14.40;8.83;;;;;;;;;;4888394;29;20647;-85
2023/08/26 01:17:19;;;;;;;10.13;9.10;;;;;;;;;;4892596;29;20720;-86
2023/08/26 01:19:54;;;;;;;10.93;9.23;;;;;;;;;;4853273;29;20677;-86
2023/08/26 01:22:24;;;;;;;10.07;8.53;;;;;;;;;;4883275;29;20634;-87
2023/08/26 01:24:54;;;;;;;10.00;8.33;;;;;;;;;;4902549;29;20655;-87
2023/08/26 01:27:23;;;;;;;9.47;8.47;;;;;;;;;;4879679;29;20703;-85
2023/08/26 01:29:51;;;;;;;11.97;9.03;;;;;;;;;;4855384;29;20671;-85
2023/08/26 01:32:23;;;;;;;8.87;7.93;;;;;;;;;;4851988;29;20667;-86
2023/08/26 01:34:56;;;;;;;14.93;8.90;;;;;;;;;;4881578;29;20598;-86
2023/08/26 01:37:26;;;;;;;10.37;9.13;;;;;;;;;;4865458;29;20686;-87
2023/08/26 01:39:59;;;;;;;12.43;9.30;;;;;;;;;;4880831;29;20718;-86
2023/08/26 01:42:28;;;;;;;11.17;8.93;;;;;;;;;;4885709;29;20763;-86
2023/08/26 01:44:56;;;;;;;14.23;9.90;;;;;;;;;;4852432;29;20633;-87
2023/08/26 01:47:24;;;;;;;13.17;8.67;;;;;;;;;;4866893;29;20619;-85
2023/08/26 01:49:53;;;;;;;10.10;8.50;;;;;;;;;;4867314;29;20710;-85
2023/08/26 01:52:22;;;;;;;11.03;9.57;;;;;;;;;;4868642;29;20736;-85
2023/08/26 01:54:50;;;;;;;16.47;8.03;;;;;;;;;;4867337;29;20659;-85
2023/08/26 01:57:21;;;;;;;11.30;9.33;;;;;;;;;;4858591;29;20632;-85
2023/08/26 01:59:49;;;;;;;13.00;8.60;;;;;;;;;;4838484;29;20658;-85
2023/08/26 02:02:17;;;;;;;14.80;9.30;;;;;;;;;;4843285;29;21274;-85
2023/08/26 02:04:46;;;;;;;10.77;9.77;;;;;;;;;;4841711;29;21317;-86
2023/08/26 02:07:14;;;;;;;10.43;9.13;;;;;;;;;;4839074;29;20639;-86
2023/08/26 02:09:43;;;;;;;10.90;9.17;;;;;;;;;;4858546;29;20686;-85
2023/08/26 02:12:11;;;;;;;16.37;9.23;;;;;;;;;;4860017;29;20703;-85
2023/08/26 02:14:41;;;;;;;10.50;9.00;;;;;;;;;;4868568;29;20702;-85
2023/08/26 02:17:10;;;;;;;13.10;9.60;;;;;;;;;;4884338;29;20709;-86
2023/08/26 02:19:43;;;;;;;20.23;9.20;;;;;;;;;;4854535;29;20639;-85
2023/08/26 02:22:12;;;;;;;11.80;9.10;;;;;;;;;;4852445;29;21240;-86
2023/08/26 02:24:42;;;;;;;11.07;9.20;;;;;;;;;;4870922;29;21256;-85
2023/08/26 02:27:10;;;;;;;9.43;8.43;;;;;;;;;;4849655;29;20635;-85
2023/08/26 02:29:38;;;;;;;14.03;9.33;;;;;;;;;;4867433;29;20675;-86
2023/08/26 02:32:08;;;;;;;13.90;9.20;;;;;;;;;;4883287;29;20736;-85
2023/08/26 02:34:37;;;;;;;11.00;9.90;;;;;;;;;;4869606;29;20711;-85
2023/08/26 02:37:05;;;;;;;16.00;9.90;;;;;;;;;;4850639;29;20687;-85
2023/08/26 02:39:33;;;;;;;11.47;9.30;;;;;;;;;;4867862;29;20712;-85
2023/08/26 02:42:02;;;;;;;13.10;9.50;;;;;;;;;;4867064;29;21244;-85
2023/08/26 02:44:30;;;;;;;11.33;9.47;;;;;;;;;;4882873;29;20600;-86
2023/08/26 02:46:58;;;;;;;11.27;9.07;;;;;;;;;;4882520;29;20636;-85
2023/08/26 02:49:27;;;;;;;9.47;8.50;;;;;;;;;;4867933;29;20611;-87
2023/08/26 02:51:55;;;;;;;11.33;9.67;;;;;;;;;;4883745;29;21220;-85
2023/08/26 02:54:24;;;;;;;15.27;9.63;;;;;;;;;;4868215;29;20722;-85
2023/08/26 02:56:52;;;;;;;9.93;8.60;;;;;;;;;;4867670;29;20631;-85
2023/08/26 02:59:20;;;;;;;12.40;9.10;;;;;;;;;;4867262;29;20754;-85
2023/08/26 03:01:59;;;;;;;13.60;9.17;;;;;;;;;;4851662;29;20609;-85
2023/08/26 03:04:29;;;;;;;12.23;9.10;;;;;;;;;;4866832;29;20655;-85
2023/08/26 03:06:58;;;;;;;12.30;8.77;;;;;;;;;;4866555;29;20635;-85
2023/08/26 03:09:28;;;;;;;14.03;9.13;;;;;;;;;;4882666;29;20660;-86
2023/08/26 03:11:56;;;;;;;11.90;9.73;;;;;;;;;;4866001;29;20681;-86
2023/08/26 03:14:24;;;;;;;9.77;8.93;;;;;;;;;;4833920;29;20632;-85
2023/08/26 03:16:52;;;;;;;9.80;8.90;;;;;;;;;;4834089;29;20708;-85
2023/08/26 03:19:21;;;;;;;9.87;8.00;;;;;;;;;;4847168;29;20622;-85
2023/08/26 03:21:51;;;;;;;13.73;9.07;;;;;;;;;;4867408;29;20688;-85
2023/08/26 03:24:19;;;;;;;13.10;9.27;;;;;;;;;;4897195;29;20718;-86
2023/08/26 03:26:50;;;;;;;15.30;9.20;;;;;;;;;;4841880;29;20611;-86
2023/08/26 03:29:18;;;;;;;9.70;7.37;;;;;;;;;;4858838;29;21222;-85
2023/08/26 03:31:49;;;;;;;10.47;8.30;;;;;;;;;;4835585;29;21102;-85
2023/08/26 03:34:20;;;;;;;9.27;8.00;;;;;;;;;;4847603;29;20626;-85
2023/08/26 03:36:48;;;;;;;9.10;8.20;;;;;;;;;;4859272;29;20675;-85
2023/08/26 03:39:18;;;;;;;13.73;8.10;;;;;;;;;;4883152;29;20727;-85
2023/08/26 03:41:46;;;;;;;9.17;7.93;;;;;;;;;;4875234;29;20623;-86
2023/08/26 03:44:15;;;;;;;9.67;8.77;;;;;;;;;;4882744;29;20639;-85
2023/08/26 03:46:44;;;;;;;13.23;8.10;;;;;;;;;;4840582;29;20719;-86
2023/08/26 03:49:12;;;;;;;10.90;8.33;;;;;;;;;;4846727;29;20651;-85
2023/08/26 03:51:41;;;;;;;10.03;8.60;;;;;;;;;;4841023;29;20743;-85
2023/08/26 03:54:09;;;;;;;17.13;7.83;;;;;;;;;;4858445;29;20974;-85
2023/08/26 03:56:39;;;;;;;8.17;7.30;;;;;;;;;;4883025;29;20662;-85
2023/08/26 03:59:08;;;;;;;8.97;8.13;;;;;;;;;;4857485;29;20755;-85
2023/08/26 04:01:38;;;;;;;7.77;6.70;;;;;;;;;;4849097;29;21241;-84
2023/08/26 04:04:07;;;;;;;12.53;7.57;;;;;;;;;;4856139;29;20716;-86
2023/08/26 04:06:35;;;;;;;9.33;7.40;;;;;;;;;;4857211;29;20652;-87
2023/08/26 04:09:03;;;;;;;13.30;7.13;;;;;;;;;;4865335;29;21244;-86
2023/08/26 04:11:32;;;;;;;9.40;7.53;;;;;;;;;;4866498;29;20677;-85
2023/08/26 04:14:02;;;;;;;8.97;8.10;;;;;;;;;;4853124;29;20691;-85
2023/08/26 04:16:30;;;;;;;7.80;7.10;;;;;;;;;;4848271;29;20719;-86
2023/08/26 04:18:59;;;;;;;13.27;8.00;;;;;;;;;;4860020;29;20718;-85
2023/08/26 04:21:27;;;;;;;13.23;7.73;;;;;;;;;;4834349;29;20636;-85
2023/08/26 04:23:55;;;;;;;11.07;7.57;;;;;;;;;;4875843;29;20714;-86
2023/08/26 04:26:24;;;;;;;8.07;7.30;;;;;;;;;;4865406;29;20745;-85
2023/08/26 04:28:53;;;;;;;10.73;8.20;;;;;;;;;;4879980;29;20627;-86
2023/08/26 04:31:23;;;;;;;11.60;7.40;;;;;;;;;;4882440;29;21046;-86
2023/08/26 04:33:51;;;;;;;10.03;7.47;;;;;;;;;;4878922;29;20601;-86
2023/08/26 04:36:19;;;;;;;10.57;7.27;;;;;;;;;;4847223;29;20640;-85
2023/08/26 04:38:48;;;;;;;8.47;7.53;;;;;;;;;;4831531;29;20608;-85
2023/08/26 04:41:16;;;;;;;8.10;7.30;;;;;;;;;;4851437;29;20644;-86
2023/08/26 04:43:45;;;;;;;12.07;7.00;;;;;;;;;;4870868;29;21155;-85
2023/08/26 04:46:13;;;;;;;8.03;7.00;;;;;;;;;;4845016;29;20623;-85
2023/08/26 04:48:45;;;;;;;11.43;6.50;;;;;;;;;;4838343;29;20629;-85
2023/08/26 04:51:13;;;;;;;7.27;5.77;;;;;;;;;;4863159;29;21002;-86
2023/08/26 04:53:42;;;;;;;9.13;4.67;;;;;;;;;;4881855;29;20719;-86
2023/08/26 04:56:11;;;;;;;6.00;5.50;;;;;;;;;;4852288;29;20715;-84
2023/08/26 04:58:40;;;;;;;8.63;5.30;;;;;;;;;;4857995;29;20645;-86
2023/08/26 05:01:10;;;;;;;8.37;5.33;;;;;;;;;;4838589;29;20699;-84
2023/08/26 05:03:39;;;;;;;6.03;5.07;;;;;;;;;;4877633;29;21059;-84
2023/08/26 05:06:09;;;;;;;7.33;5.10;;;;;;;;;;4867307;29;20720;-84
2023/08/26 05:08:38;;;;;;;9.23;5.40;;;;;;;;;;4836311;29;21056;-84
2023/08/26 05:11:07;;;;;;;5.70;4.47;;;;;;;;;;4879325;29;20749;-84
2023/08/26 05:13:36;;;;;;;4.63;4.13;;;;;;;;;;4868264;29;21077;-84
2023/08/26 05:16:04;;;;;;;7.60;4.97;;;;;;;;;;4852154;29;20792;-84
2023/08/26 05:18:33;;;;;;;5.00;4.37;;;;;;;;;;4872335;29;20714;-84
2023/08/26 05:21:01;;;;;;;5.03;4.53;;;;;;;;;;4867440;29;20646;-84
2023/08/26 05:23:31;;;;;;;6.10;4.77;;;;;;;;;;4868527;29;20744;-84
2023/08/26 05:26:00;;;;;;;5.70;4.43;;;;;;;;;;4864308;29;21232;-84
2023/08/26 05:28:29;;;;;;;6.83;4.27;;;;;;;;;;4861049;29;20616;-84
2023/08/26 05:30:57;;;;;;;8.57;4.53;;;;;;;;;;4837842;29;20670;-84
2023/08/26 05:33:25;;;;;;;5.00;4.47;;;;;;;;;;4867344;29;21037;-85
2023/08/26 05:35:54;;;;;;;11.03;4.57;;;;;;;;;;4848070;29;20794;-84
2023/08/26 05:38:22;;;;;;;5.80;4.27;;;;;;;;;;4883784;29;20643;-84
2023/08/26 05:40:52;;;;;;;7.73;4.10;;;;;;;;;;4863652;29;20636;-85
2023/08/26 05:43:20;;;;;;;5.63;4.10;;;;;;;;;;4845237;29;20712;-84
2023/08/26 05:45:50;;;;;;;4.77;3.60;;;;;;;;;;4849782;29;20629;-84
2023/08/26 05:48:18;;;;;;;5.83;3.87;;;;;;;;;;4867162;29;20645;-86
2023/08/26 05:50:47;;;;;;;4.97;4.17;;;;;;;;;;4849099;29;20640;-85
2023/08/26 05:53:16;;;;;;;6.60;3.90;;;;;;;;;;4869353;29;20690;-85
2023/08/26 05:55:44;;;;;;;5.63;3.37;;;;;;;;;;4840393;29;20637;-85
2023/08/26 05:58:14;;;;;;;6.80;4.07;;;;;;;;;;4864265;29;20630;-85
2023/08/26 06:00:42;;;;;;;6.97;4.20;;;;;;;;;;4882545;29;20731;-84
2023/08/26 06:03:11;;;;;;;11.43;3.67;;;;;;;;;;4857712;29;20671;-85
2023/08/26 06:05:39;;;;;;;6.80;3.10;;;;;;;;;;4864760;29;20637;-85
2023/08/26 06:08:09;;;;;;;3.63;3.00;;;;;;;;;;4865200;29;20718;-85
2023/08/26 06:10:38;;;;;;;4.03;2.97;;;;;;;;;;4861508;29;20771;-86
2023/08/26 06:13:08;;;;;;;6.73;3.30;;;;;;;;;;4866400;29;20699;-85
2023/08/26 06:15:39;;;;;;;2.93;2.67;;;;;;;;;;4882710;29;20720;-85
2023/08/26 06:18:07;;;;;;;4.50;2.87;;;;;;;;;;4844780;29;21039;-85
2023/08/26 06:20:35;;;;;;;6.73;2.73;;;;;;;;;;4883594;29;20711;-85
2023/08/26 06:23:04;;;;;;;4.73;2.93;;;;;;;;;;4868177;29;21244;-84
2023/08/26 06:25:33;;;;;;;8.70;3.60;;;;;;;;;;4858628;29;21276;-85
2023/08/26 06:28:01;;;;;;;6.40;3.33;;;;;;;;;;4867987;29;20730;-85
2023/08/26 06:30:29;;;;;;;4.93;2.80;;;;;;;;;;4875855;29;20631;-85
2023/08/26 06:32:59;;;;;;;6.30;3.00;;;;;;;;;;4850470;29;20682;-85
2023/08/26 06:35:28;;;;;;;3.13;2.87;;;;;;;;;;4866824;29;21065;-85
2023/08/26 06:37:56;;;;;;;4.97;3.37;;;;;;;;;;4843147;29;20636;-86
2023/08/26 06:40:25;;;;;;;4.37;3.40;;;;;;;;;;4868080;29;20630;-85
2023/08/26 06:42:53;;;;;;;2.40;2.20;;;;;;;;;;4865929;29;21249;-86
2023/08/26 06:45:25;;;;;;;3.47;3.17;;;;;;;;;;4852102;29;21113;-86
2023/08/26 06:47:54;;;;;;;2.73;2.53;;;;;;;;;;4878852;29;20722;-85
2023/08/26 06:50:24;;;;;;;3.07;2.87;;;;;;;;;;4878375;29;21039;-86
2023/08/26 06:52:55;;;;;;;5.83;2.80;;;;;;;;;;4880574;29;20745;-85
2023/08/26 06:55:23;;;;;;;11.03;2.97;;;;;;;;;;4889453;29;20829;-86
2023/08/26 06:57:52;;;;;;;3.50;2.50;;;;;;;;;;4869376;29;20790;-85
2023/08/26 07:00:21;;;;;;;3.20;2.23;;;;;;;;;;4866516;29;20834;-87
2023/08/26 07:02:49;;;;;;;4.23;2.87;;;;;;;;;;4868164;29;21213;-83
2023/08/26 07:05:19;;;;;;;5.03;2.73;;;;;;;;;;4871934;29;20729;-82
2023/08/26 07:07:50;;;;;;;3.30;2.60;;;;;;;;;;4853100;29;20715;-82
2023/08/26 07:10:18;;;;;;;2.27;2.17;;;;;;;;;;4865751;29;20768;-82
2023/08/26 07:12:47;;;;;;;2.83;2.50;;;;;;;;;;4866275;29;20739;-82
2023/08/26 07:15:16;;;;;;;2.90;2.20;;;;;;;;;;4859697;29;20760;-83
2023/08/26 07:17:44;;;;;;;4.70;2.60;;;;;;;;;;4874086;29;20593;-83
2023/08/26 07:20:15;;;;;;;3.20;2.40;;;;;;;;;;4857666;29;20668;-83
2023/08/26 07:22:44;;;;;;;3.10;2.20;;;;;;;;;;4866525;29;20632;-83
2023/08/26 07:25:14;;;;;;;6.37;3.10;;;;;;;;;;4834707;29;20719;-83
2023/08/26 07:27:43;;;;;;;4.93;2.60;;;;;;;;;;4841221;29;20627;-83
2023/08/26 07:30:11;;;;;;;6.27;2.50;;;;;;;;;;4883431;29;20631;-83
2023/08/26 07:32:39;;;;;;;5.30;2.77;;;;;;;;;;4875011;29;20655;-83
2023/08/26 07:35:09;;;;;;;2.47;2.37;;;;;;;;;;4866863;29;20643;-83
2023/08/26 07:37:37;;;;;;;2.57;2.37;;;;;;;;;;4861274;29;20878;-83
2023/08/26 07:40:06;;;;;;;3.10;2.80;;;;;;;;;;4857037;29;20815;-82
2023/08/26 07:42:36;;;;;;;2.70;2.50;;;;;;;;;;4835210;29;20623;-84
2023/08/26 07:45:04;;;;;;;5.67;2.63;;;;;;;;;;4852310;29;21118;-84
2023/08/26 07:47:33;;;;;;;6.70;3.00;;;;;;;;;;4852621;29;20723;-85
2023/08/26 07:50:01;;;;;;;2.80;2.60;;;;;;;;;;4865105;29;20662;-84
2023/08/26 07:52:29;;;;;;;2.53;2.33;;;;;;;;;;4877432;29;20688;-83
2023/08/26 07:54:58;;;;;;;3.33;2.37;;;;;;;;;;4893648;29;20664;-82
2023/08/26 07:57:27;;;;;;;5.43;2.70;;;;;;;;;;4879553;29;20710;-88
2023/08/26 07:59:57;;;;;;;4.03;2.60;;;;;;;;;;4871221;29;20742;-86
2023/08/26 08:02:46;;;;;;;5.60;2.50;;;;;;;;;;4889003;29;21135;-85
2023/08/26 08:05:15;;;;;;;4.17;2.57;;;;;;;;;;4871579;29;20695;-86
2023/08/26 08:07:44;;;;;;;5.40;2.97;;;;;;;;;;4858367;29;20694;-87
2023/08/26 08:10:13;;;;;;;2.60;2.30;;;;;;;;;;4874726;29;20667;-86
2023/08/26 08:12:42;;;;;;;2.50;2.40;;;;;;;;;;4859642;29;20749;-85
2023/08/26 08:15:12;;;;;;;3.87;3.00;;;;;;;;;;4849080;29;20722;-84
2023/08/26 08:17:41;;;;;;;2.70;2.50;;;;;;;;;;4869950;29;20954;-84
2023/08/26 08:20:12;;;;;;;7.83;2.73;;;;;;;;;;4877916;29;20627;-86
2023/08/26 08:22:43;;;;;;;4.77;2.53;;;;;;;;;;4854079;29;20811;-86
2023/08/26 08:25:12;;;;;;;3.97;2.50;;;;;;;;;;4867040;29;20759;-85
2023/08/26 08:27:40;;;;;;;3.83;2.67;;;;;;;;;;4876674;29;20723;-85
2023/08/26 08:30:09;;;;;;;3.13;2.47;;;;;;;;;;4882657;29;20711;-85
2023/08/26 08:32:39;;;;;;;3.30;2.57;;;;;;;;;;4874518;29;21095;-85
2023/08/26 08:35:08;;;;;;;6.87;3.20;;;;;;;;;;4873901;29;21002;-85
2023/08/26 08:37:37;;;;;;;2.70;2.50;;;;;;;;;;4873261;29;20717;-85
2023/08/26 08:40:06;;;;;;;4.57;3.00;;;;;;;;;;4889655;29;21282;-85
2023/08/26 08:42:35;;;;;;;3.95;2.65;;;;;;;;;;4871418;29;20877;-85
2023/08/26 08:45:04;;;;;;;3.73;2.50;;;;;;;;;;4856913;29;20203;-85
2023/08/26 08:47:33;;;;;;;5.23;2.77;;;;;;;;;;4872720;29;20690;-85
2023/08/26 08:50:04;;;;;;;2.70;2.33;;;;;;;;;;4872867;29;20666;-85
2023/08/26 08:52:33;;;;;;;3.43;2.47;;;;;;;;;;4873610;29;20677;-85
2023/08/26 08:55:05;;;;;;;3.70;2.23;;;;;;;;;;4888457;29;20638;-85
2023/08/26 08:57:38;;;;;;;2.37;2.27;;;;;;;;;;4873250;29;20567;-86
2023/08/26 09:00:10;;;;;;;2.07;1.97;;;;;;;;;;4888679;29;20731;-85
2023/08/26 09:02:41;;;;;;;2.73;2.50;;;;;;;;;;4858548;29;20682;-87
2023/08/26 09:05:12;;;;;;;2.80;2.60;;;;;;;;;;4856114;29;20586;-87
2023/08/26 09:07:43;;;;;;;2.73;2.10;;;;;;;;;;4890185;29;21282;-86
2023/08/26 09:10:12;;;;;;;5.53;2.33;;;;;;;;;;4871792;29;20662;-87
2023/08/26 09:12:40;;;;;;;4.27;3.23;;;;;;;;;;4888513;29;20671;-87
2023/08/26 09:15:09;;;;;;;4.40;2.53;;;;;;;;;;4887657;29;20718;-85
2023/08/26 09:17:37;;;;;;;3.37;2.30;;;;;;;;;;4888301;29;20614;-86
2023/08/26 09:20:07;;;;;;;4.70;2.60;;;;;;;;;;4888229;29;20983;-85
2023/08/26 09:22:38;;;;;;;6.03;3.00;;;;;;;;;;4872245;29;20730;-85
2023/08/26 09:25:07;;;;;;;2.90;2.70;;;;;;;;;;4887646;29;20654;-85
2023/08/26 09:27:39;;;;;;;4.07;2.90;;;;;;;;;;4887917;29;21075;-87
2023/08/26 09:30:09;;;;;;;5.80;2.70;;;;;;;;;;4870077;29;20678;-85
2023/08/26 09:32:45;;;;;;;7.23;3.20;;;;;;;;;;4886607;29;20741;-86
2023/08/26 09:35:23;;;;;;;3.80;3.50;;;;;;;;;;4886058;29;20737;-85
2023/08/26 09:37:59;;;;;;;3.17;2.97;;;;;;;;;;4851674;29;20726;-85
2023/08/26 09:40:27;;;;;;;3.87;3.47;;;;;;;;;;4868899;29;21232;-86
2023/08/26 09:46:04;;;;;;;5.43;3.90;;;;;;;;;;4869037;29;20647;-87
2023/08/26 09:48:34;;;;;;;4.20;3.90;;;;;;;;;;4869008;29;20716;-87
2023/08/26 09:51:07;;;;;;;4.70;4.17;;;;;;;;;;4868787;29;20710;-86
2023/08/26 09:53:37;;;;;;;4.10;3.80;;;;;;;;;;4853191;29;20662;-87
2023/08/26 09:56:05;;;;;;;4.03;3.83;;;;;;;;;;4853280;29;20627;-86
2023/08/26 09:58:39;;;;;;;5.00;4.50;;;;;;;;;;4870172;29;20725;-86
2023/08/26 10:01:08;;;;;;;4.77;4.33;;;;;;;;;;4836316;29;20711;-85
2023/08/26 10:03:39;;;;;;;5.93;4.27;;;;;;;;;;4850884;29;21226;-86
2023/08/26 10:06:08;;;;;;;4.67;4.47;;;;;;;;;;4847414;29;20789;-86
2023/08/26 10:08:39;;;;;;;4.30;4.20;;;;;;;;;;4832881;29;20621;-86
2023/08/26 10:11:09;;;;;;;4.30;4.10;;;;;;;;;;4849588;29;21072;-85
2023/08/26 10:13:37;;;;;;;4.83;4.40;;;;;;;;;;4846454;29;20860;-86
2023/08/26 10:16:08;;;;;;;5.07;4.87;;;;;;;;;;4885877;29;20710;-86
2023/08/26 10:18:38;;;;;;;5.00;4.80;;;;;;;;;;4869202;29;21245;-86
2023/08/26 10:21:09;;;;;;;4.77;4.57;;;;;;;;;;4885914;29;20710;-84
2023/08/26 10:23:40;;;;;;;6.03;4.27;;;;;;;;;;4885166;29;20790;-86
2023/08/26 10:26:09;;;;;;;4.60;4.40;;;;;;;;;;4870783;29;20682;-85
2023/08/26 10:28:38;;;;;;;4.30;4.10;;;;;;;;;;4853575;29;20738;-86
2023/08/26 10:31:08;;;;;;;5.13;4.73;;;;;;;;;;4853771;29;20719;-85
2023/08/26 10:33:58;;;;;;;4.83;4.40;;;;;;;;;;4867448;29;20670;-85
2023/08/26 10:36:27;;;;;;;4.70;4.40;;;;;;;;;;4851081;29;20671;-85
2023/08/26 10:39:00;;;;;;;8.80;4.70;;;;;;;;;;4866899;29;20671;-86
2023/08/26 10:41:28;;;;;;;4.60;4.43;;;;;;;;;;4851305;29;20585;-84
2023/08/26 10:43:58;;;;;;;4.57;4.37;;;;;;;;;;4835818;29;20692;-85
2023/08/26 10:46:37;;;;;;;4.70;4.30;;;;;;;;;;4867654;29;20679;-85
2023/08/26 10:49:06;;;;;;;4.53;4.33;;;;;;;;;;4850168;29;20670;-85
2023/08/26 10:51:37;;;;;;;4.47;4.20;;;;;;;;;;4866084;29;20622;-86
2023/08/26 10:54:09;;;;;;;6.03;4.80;;;;;;;;;;4866875;29;20660;-86
2023/08/26 10:56:39;;;;;;;4.23;4.03;;;;;;;;;;4866447;29;20695;-86
2023/08/26 10:59:08;;;;;;;4.60;4.30;;;;;;;;;;4869769;29;21098;-86
2023/08/26 11:01:38;;;;;;;4.50;4.10;;;;;;;;;;4883107;29;20699;-87
2023/08/26 11:04:06;;;;;;;4.80;4.50;;;;;;;;;;4867345;29;20647;-86
2023/08/26 11:06:38;;;;;;;4.10;3.90;;;;;;;;;;4869011;29;21260;-86
2023/08/26 11:09:09;;;;;;;4.13;3.93;;;;;;;;;;4868709;29;21241;-86
2023/08/26 11:11:37;;;;;;;4.30;3.90;;;;;;;;;;4884964;29;20623;-84
2023/08/26 11:14:07;;;;;;;4.30;4.00;;;;;;;;;;4885074;29;21287;-84
2023/08/26 11:16:38;;;;;;;4.23;3.90;;;;;;;;;;4868895;29;20675;-85
2023/08/26 11:19:08;;;;;;;4.40;4.10;;;;;;;;;;4875759;29;20661;-85
2023/08/26 11:21:37;;;;;;;5.40;4.53;;;;;;;;;;4871939;29;20631;-84
2023/08/26 11:24:11;;;;;;;4.20;3.90;;;;;;;;;;4903196;29;20631;-84
2023/08/26 11:26:39;;;;;;;5.33;3.50;;;;;;;;;;4903603;29;20626;-86
2023/08/26 11:29:10;;;;;;;4.00;3.80;;;;;;;;;;4903248;29;20634;-85
2023/08/26 11:31:39;;;;;;;4.50;4.30;;;;;;;;;;4857326;24;21334;-66
2023/08/26 11:34:07;;;;;;;11.83;4.50;;;;;;;;;;4838516;29;21227;-67
2023/08/26 11:36:35;;;;;;;4.60;4.20;;;;;;;;;;4822566;29;20678;-66
2023/08/26 11:39:07;;;;;;;3.80;3.70;;;;;;;;;;4822700;29;20625;-66
2023/08/26 11:41:36;;;;;;;4.07;3.70;;;;;;;;;;4806094;29;20696;-66
2023/08/26 11:44:14;;;;;;;4.43;4.23;;;;;;;;;;4822265;29;20974;-67
2023/08/26 11:46:43;;;;;;;4.80;4.50;;;;;;;;;;4822115;29;20606;-66
2023/08/26 11:49:11;;;;;;;6.73;5.10;;;;;;;;;;4821869;29;21200;-66
2023/08/26 11:51:41;;;;;;;5.10;4.80;;;;;;;;;;4821995;29;20618;-66
2023/08/26 11:54:09;;;;;;;4.97;4.67;;;;;;;;;;4822584;29;20665;-69
2023/08/26 11:56:39;;;;;;;4.60;4.30;;;;;;;;;;4822106;29;20613;-68
2023/08/26 11:59:19;;;;;;;4.87;4.37;;;;;;;;;;4822352;29;21184;-68
2023/08/26 12:01:47;;;;;;;5.30;4.80;;;;;;;;;;4821325;29;20605;-69
2023/08/26 12:04:16;;;;;;;4.40;4.20;;;;;;;;;;4824457;29;20677;-68
2023/08/26 12:06:45;;;;;;;4.73;4.20;;;;;;;;;;4827726;29;20625;-68
2023/08/26 12:09:14;;;;;;;5.57;4.40;;;;;;;;;;4840148;29;20628;-68
2023/08/26 12:11:44;;;;;;;4.00;3.60;;;;;;;;;;4846222;29;20613;-68
2023/08/26 12:14:18;;;;;;;6.43;4.40;;;;;;;;;;4846755;29;20661;-68
2023/08/26 12:16:47;;;;;;;4.23;3.93;;;;;;;;;;4846631;29;20824;-68
2023/08/26 12:19:16;;;;;;;4.13;3.60;;;;;;;;;;4846190;29;20636;-67
2023/08/26 12:21:44;;;;;;;4.00;3.60;;;;;;;;;;4829798;29;20669;-68
2023/08/26 12:24:12;;;;;;;6.47;4.10;;;;;;;;;;4845298;29;20662;-68
2023/08/26 12:26:41;;;;;;;4.13;3.80;;;;;;;;;;4844695;29;21044;-68
2023/08/26 12:29:10;;;;;;;3.43;3.33;;;;;;;;;;4846320;29;21148;-68
2023/08/26 12:31:38;;;;;;;3.50;3.30;;;;;;;;;;4857340;29;20659;-68
2023/08/26 12:34:07;;;;;;;3.77;3.33;;;;;;;;;;4864806;29;20674;-68
2023/08/26 12:36:35;;;;;;;3.40;3.20;;;;;;;;;;4864571;29;20631;-67
2023/08/26 12:39:03;;;;;;;3.17;3.00;;;;;;;;;;4864899;29;20632;-66
2023/08/26 12:41:32;;;;;;;3.90;3.40;;;;;;;;;;4861242;29;21263;-68
2023/08/26 12:44:00;;;;;;;4.93;2.97;;;;;;;;;;4864518;29;20646;-68
2023/08/26 12:46:30;;;;;;;3.37;3.07;;;;;;;;;;4862706;29;20624;-68
2023/08/26 12:48:58;;;;;;;3.27;2.93;;;;;;;;;;4863983;29;21273;-68
2023/08/26 12:51:26;;;;;;;2.90;2.70;;;;;;;;;;4851663;29;20653;-68
2023/08/26 12:53:55;;;;;;;6.40;2.77;;;;;;;;;;4830903;29;20650;-68
2023/08/26 12:56:23;;;;;;;2.80;2.53;;;;;;;;;;4863740;29;20638;-68
2023/08/26 12:58:52;;;;;;;2.80;2.53;;;;;;;;;;4863960;29;20636;-68
2023/08/26 13:01:20;;;;;;;3.03;2.40;;;;;;;;;;4861161;29;21214;-68
2023/08/26 13:03:50;;;;;;;6.97;2.67;;;;;;;;;;4863621;29;20660;-67
2023/08/26 13:06:18;;;;;;;2.90;2.70;;;;;;;;;;4863103;29;21024;-68
2023/08/26 13:08:46;;;;;;;3.33;2.97;;;;;;;;;;4864411;29;20972;-68
2023/08/26 13:11:14;;;;;;;3.53;3.10;;;;;;;;;;4852653;29;21011;-67
2023/08/26 13:13:43;;;;;;;2.93;2.63;;;;;;;;;;4864105;29;20969;-68
2023/08/26 13:16:11;;;;;;;2.67;2.47;;;;;;;;;;4861523;29;20668;-68
2023/08/26 13:18:42;;;;;;;2.87;2.60;;;;;;;;;;4852285;29;20663;-68
2023/08/26 13:21:12;;;;;;;5.17;2.60;;;;;;;;;;4844882;29;20616;-68
2023/08/26 13:23:40;;;;;;;3.17;2.80;;;;;;;;;;4860919;29;20652;-68
2023/08/26 13:26:09;;;;;;;4.20;3.00;;;;;;;;;;4861265;29;20634;-68
2023/08/26 13:28:38;;;;;;;5.80;2.63;;;;;;;;;;4860722;29;20618;-68
2023/08/26 13:31:06;;;;;;;4.43;2.77;;;;;;;;;;4859081;29;20657;-69
2023/08/26 13:33:35;;;;;;;3.17;2.87;;;;;;;;;;4852470;29;20623;-68
2023/08/26 13:36:03;;;;;;;5.23;2.83;;;;;;;;;;4849244;29;20672;-68
2023/08/26 13:38:33;;;;;;;3.50;2.50;;;;;;;;;;4851532;29;20681;-68
2023/08/26 13:41:01;;;;;;;3.50;2.30;;;;;;;;;;4850592;29;20624;-68
2023/08/26 13:43:29;;;;;;;3.37;2.40;;;;;;;;;;4842636;29;21015;-68
2023/08/26 13:45:57;;;;;;;2.87;2.67;;;;;;;;;;4852756;29;20628;-68
2023/08/26 13:48:26;;;;;;;3.57;3.07;;;;;;;;;;4849850;29;20637;-69
2023/08/26 13:50:54;;;;;;;3.93;3.63;;;;;;;;;;4844290;29;20625;-69
2023/08/26 13:53:22;;;;;;;3.70;3.40;;;;;;;;;;4847264;29;20739;-68
2023/08/26 13:55:57;;;;;;;6.43;2.80;;;;;;;;;;4844880;29;20728;-68
2023/08/26 13:58:25;;;;;;;7.90;3.50;;;;;;;;;;4841076;29;21182;-67
2023/08/26 14:00:56;;;;;;;5.73;2.80;;;;;;;;;;4842920;29;20645;-68
2023/08/26 14:03:25;;;;;;;9.40;3.40;;;;;;;;;;4841703;29;21035;-68
2023/08/26 14:05:53;;;;;;;4.30;2.73;;;;;;;;;;4840643;29;20635;-68
2023/08/26 14:08:21;;;;;;;3.90;2.90;;;;;;;;;;4845437;29;20668;-69
2023/08/26 14:10:49;;;;;;;3.07;2.80;;;;;;;;;;4849414;29;20995;-69
2023/08/26 14:13:19;;;;;;;4.00;2.83;;;;;;;;;;4840439;29;20692;-68
2023/08/26 14:15:47;;;;;;;4.27;3.97;;;;;;;;;;4841944;29;21055;-68
2023/08/26 14:18:15;;;;;;;8.27;3.77;;;;;;;;;;4841013;29;20653;-69
2023/08/26 14:20:44;;;;;;;3.90;3.40;;;;;;;;;;4841458;29;20640;-68
2023/08/26 14:23:13;;;;;;;3.40;3.30;;;;;;;;;;4841488;29;20617;-68
2023/08/26 14:25:42;;;;;;;3.93;3.73;;;;;;;;;;4841167;29;20637;-68
2023/08/26 14:28:10;;;;;;;4.80;4.50;;;;;;;;;;4841840;29;20647;-68
2023/08/26 14:30:39;;;;;;;7.70;5.10;;;;;;;;;;4846198;29;20683;-68
2023/08/26 14:33:08;;;;;;;5.83;5.43;;;;;;;;;;4855422;29;20640;-68
2023/08/26 14:35:37;;;;;;;5.83;5.53;;;;;;;;;;4859192;29;21070;-68
2023/08/26 14:38:05;;;;;;;5.67;5.27;;;;;;;;;;4859292;29;20648;-68
2023/08/26 14:40:33;;;;;;;6.17;5.90;;;;;;;;;;4864991;29;20640;-68
2023/08/26 14:43:01;;;;;;;5.90;5.50;;;;;;;;;;4858736;29;21190;-68
2023/08/26 14:45:30;;;;;;;6.40;6.10;;;;;;;;;;4858601;29;21044;-68
2023/08/26 14:47:59;;;;;;;6.10;5.80;;;;;;;;;;4859094;29;20691;-68
2023/08/26 14:50:29;;;;;;;10.53;6.30;;;;;;;;;;4858999;29;20651;-67
2023/08/26 14:53:00;;;;;;;6.63;6.13;;;;;;;;;;4861001;29;20608;-69
2023/08/26 14:55:28;;;;;;;6.53;6.30;;;;;;;;;;4858902;29;20667;-68